sensor_id;sensor_type;location;lat;lon;timestamp;P1;durP1;ratioP1;P2;durP2;ratioP2
59824;SDS011;45703;50.898;6.054;2023-03-14T00:00:21;6.57;;;1.40;;
59824;SDS011;45703;50.898;6.054;2023-03-14T00:02:50;6.03;;;1.27;;
59824;SDS011;45703;50.898;6.054;2023-03-14T00:05:17;7.68;;;1.48;;
59824;SDS011;45703;50.898;6.054;2023-03-14T00:07:42;9.32;;;1.52;;
59824;SDS011;45703;50.898;6.054;2023-03-14T00:10:08;6.15;;;0.90;;
59824;SDS011;45703;50.898;6.054;2023-03-14T00:12:36;6.63;;;1.00;;
59824;SDS011;45703;50.898;6.054;2023-03-14T00:15:02;3.22;;;0.77;;
59824;SDS011;45703;50.898;6.054;2023-03-14T00:17:29;2.10;;;0.60;;
59824;SDS011;45703;50.898;6.054;2023-03-14T00:19:55;4.70;;;0.80;;
59824;SDS011;45703;50.898;6.054;2023-03-14T00:22:21;6.53;;;1.13;;
59824;SDS011;45703;50.898;6.054;2023-03-14T00:24:46;6.55;;;1.05;;
59824;SDS011;45703;50.898;6.054;2023-03-14T00:27:12;5.18;;;1.00;;
59824;SDS011;45703;50.898;6.054;2023-03-14T00:46:26;5.55;;;0.93;;
59824;SDS011;45703;50.898;6.054;2023-03-14T00:48:51;4.75;;;1.05;;
59824;SDS011;45703;50.898;6.054;2023-03-14T00:51:17;5.05;;;1.17;;
59824;SDS011;45703;50.898;6.054;2023-03-14T00:53:42;6.35;;;1.10;;
59824;SDS011;45703;50.898;6.054;2023-03-14T00:56:09;6.20;;;1.10;;
59824;SDS011;45703;50.898;6.054;2023-03-14T00:58:36;4.53;;;1.33;;
59824;SDS011;45703;50.898;6.054;2023-03-14T01:01:09;5.75;;;1.10;;
59824;SDS011;45703;50.898;6.054;2023-03-14T01:03:37;7.38;;;1.10;;
59824;SDS011;45703;50.898;6.054;2023-03-14T01:06:10;7.13;;;1.00;;
59824;SDS011;45703;50.898;6.054;2023-03-14T01:08:37;5.85;;;0.82;;
59824;SDS011;45703;50.898;6.054;2023-03-14T01:11:10;8.15;;;0.95;;
59824;SDS011;45703;50.898;6.054;2023-03-14T01:13:41;6.18;;;1.02;;
59824;SDS011;45703;50.898;6.054;2023-03-14T01:16:08;6.97;;;1.00;;
59824;SDS011;45703;50.898;6.054;2023-03-14T01:18:35;5.18;;;0.95;;
59824;SDS011;45703;50.898;6.054;2023-03-14T01:21:02;7.00;;;0.90;;
59824;SDS011;45703;50.898;6.054;2023-03-14T01:23:29;7.07;;;1.13;;
59824;SDS011;45703;50.898;6.054;2023-03-14T01:25:55;4.82;;;1.00;;
59824;SDS011;45703;50.898;6.054;2023-03-14T01:28:20;4.32;;;0.95;;
59824;SDS011;45703;50.898;6.054;2023-03-14T01:30:45;5.78;;;0.80;;
59824;SDS011;45703;50.898;6.054;2023-03-14T01:33:11;4.60;;;0.80;;
59824;SDS011;45703;50.898;6.054;2023-03-14T01:35:38;3.42;;;0.88;;
59824;SDS011;45703;50.898;6.054;2023-03-14T01:38:03;5.60;;;1.00;;
59824;SDS011;45703;50.898;6.054;2023-03-14T01:40:28;2.92;;;0.68;;
59824;SDS011;45703;50.898;6.054;2023-03-14T01:42:57;4.18;;;0.70;;
59824;SDS011;45703;50.898;6.054;2023-03-14T01:51:09;5.10;;;0.90;;
59824;SDS011;45703;50.898;6.054;2023-03-14T01:53:38;7.65;;;0.90;;
59824;SDS011;45703;50.898;6.054;2023-03-14T01:56:07;4.93;;;1.00;;
59824;SDS011;45703;50.898;6.054;2023-03-14T01:58:35;7.53;;;1.25;;
59824;SDS011;45703;50.898;6.054;2023-03-14T02:01:01;5.78;;;0.88;;
59824;SDS011;45703;50.898;6.054;2023-03-14T02:03:28;5.50;;;0.90;;
59824;SDS011;45703;50.898;6.054;2023-03-14T02:05:56;6.97;;;1.40;;
59824;SDS011;45703;50.898;6.054;2023-03-14T02:08:24;4.63;;;1.10;;
59824;SDS011;45703;50.898;6.054;2023-03-14T02:10:52;5.38;;;1.10;;
59824;SDS011;45703;50.898;6.054;2023-03-14T02:13:21;5.18;;;0.93;;
59824;SDS011;45703;50.898;6.054;2023-03-14T02:15:47;4.75;;;1.00;;
59824;SDS011;45703;50.898;6.054;2023-03-14T02:18:14;6.30;;;1.05;;
59824;SDS011;45703;50.898;6.054;2023-03-14T02:26:31;7.88;;;1.65;;
59824;SDS011;45703;50.898;6.054;2023-03-14T02:29:03;6.20;;;1.27;;
59824;SDS011;45703;50.898;6.054;2023-03-14T02:31:29;6.85;;;1.20;;
59824;SDS011;45703;50.898;6.054;2023-03-14T02:33:54;7.30;;;1.08;;
59824;SDS011;45703;50.898;6.054;2023-03-14T02:36:21;8.00;;;1.40;;
59824;SDS011;45703;50.898;6.054;2023-03-14T02:41:16;4.03;;;1.17;;
59824;SDS011;45703;50.898;6.054;2023-03-14T02:43:42;6.20;;;1.17;;
59824;SDS011;45703;50.898;6.054;2023-03-14T02:46:08;7.00;;;1.50;;
59824;SDS011;45703;50.898;6.054;2023-03-14T02:48:41;7.25;;;1.70;;
59824;SDS011;45703;50.898;6.054;2023-03-14T02:51:11;8.73;;;1.98;;
59824;SDS011;45703;50.898;6.054;2023-03-14T02:53:37;8.13;;;1.40;;
59824;SDS011;45703;50.898;6.054;2023-03-14T02:56:03;7.25;;;1.60;;
59824;SDS011;45703;50.898;6.054;2023-03-14T02:58:29;7.28;;;1.50;;
59824;SDS011;45703;50.898;6.054;2023-03-14T03:00:55;9.27;;;1.98;;
59824;SDS011;45703;50.898;6.054;2023-03-14T03:03:21;7.60;;;1.52;;
59824;SDS011;45703;50.898;6.054;2023-03-14T03:05:50;6.38;;;1.60;;
59824;SDS011;45703;50.898;6.054;2023-03-14T03:08:17;7.63;;;1.60;;
59824;SDS011;45703;50.898;6.054;2023-03-14T03:10:44;5.45;;;1.10;;
59824;SDS011;45703;50.898;6.054;2023-03-14T03:13:09;7.97;;;1.30;;
59824;SDS011;45703;50.898;6.054;2023-03-14T03:15:35;6.32;;;1.20;;
59824;SDS011;45703;50.898;6.054;2023-03-14T03:18:00;6.50;;;1.45;;
59824;SDS011;45703;50.898;6.054;2023-03-14T03:20:26;6.50;;;1.55;;
59824;SDS011;45703;50.898;6.054;2023-03-14T03:22:51;4.75;;;1.20;;
59824;SDS011;45703;50.898;6.054;2023-03-14T03:25:26;4.65;;;1.10;;
59824;SDS011;45703;50.898;6.054;2023-03-14T03:27:51;5.47;;;0.98;;
59824;SDS011;45703;50.898;6.054;2023-03-14T03:30:17;3.55;;;0.80;;
59824;SDS011;45703;50.898;6.054;2023-03-14T03:32:42;5.57;;;0.95;;
59824;SDS011;45703;50.898;6.054;2023-03-14T03:35:08;4.82;;;0.88;;
59824;SDS011;45703;50.898;6.054;2023-03-14T03:37:34;5.22;;;1.00;;
59824;SDS011;45703;50.898;6.054;2023-03-14T03:40:00;3.50;;;0.93;;
59824;SDS011;45703;50.898;6.054;2023-03-14T03:42:26;2.08;;;0.68;;
59824;SDS011;45703;50.898;6.054;2023-03-14T03:44:52;2.45;;;0.68;;
59824;SDS011;45703;50.898;6.054;2023-03-14T03:47:18;4.95;;;0.77;;
59824;SDS011;45703;50.898;6.054;2023-03-14T03:49:43;3.15;;;0.60;;
59824;SDS011;45703;50.898;6.054;2023-03-14T03:52:09;5.97;;;0.82;;
59824;SDS011;45703;50.898;6.054;2023-03-14T03:54:34;4.32;;;0.60;;
59824;SDS011;45703;50.898;6.054;2023-03-14T03:57:00;3.78;;;0.60;;
59824;SDS011;45703;50.898;6.054;2023-03-14T03:59:25;3.28;;;0.60;;
59824;SDS011;45703;50.898;6.054;2023-03-14T04:01:51;4.00;;;0.75;;
59824;SDS011;45703;50.898;6.054;2023-03-14T04:04:16;3.28;;;0.60;;
59824;SDS011;45703;50.898;6.054;2023-03-14T04:06:42;4.75;;;0.70;;
59824;SDS011;45703;50.898;6.054;2023-03-14T04:09:08;3.42;;;0.70;;
59824;SDS011;45703;50.898;6.054;2023-03-14T04:11:34;2.97;;;0.63;;
59824;SDS011;45703;50.898;6.054;2023-03-14T04:13:59;4.88;;;0.63;;
59824;SDS011;45703;50.898;6.054;2023-03-14T04:16:25;2.35;;;0.50;;
59824;SDS011;45703;50.898;6.054;2023-03-14T04:18:51;3.00;;;0.50;;
59824;SDS011;45703;50.898;6.054;2023-03-14T04:21:17;3.72;;;0.50;;
59824;SDS011;45703;50.898;6.054;2023-03-14T04:23:45;2.63;;;0.50;;
59824;SDS011;45703;50.898;6.054;2023-03-14T04:26:11;3.67;;;0.70;;
59824;SDS011;45703;50.898;6.054;2023-03-14T04:28:36;4.18;;;0.63;;
59824;SDS011;45703;50.898;6.054;2023-03-14T04:31:15;2.38;;;0.50;;
59824;SDS011;45703;50.898;6.054;2023-03-14T04:33:44;2.03;;;0.47;;
59824;SDS011;45703;50.898;6.054;2023-03-14T04:36:11;2.25;;;0.50;;
59824;SDS011;45703;50.898;6.054;2023-03-14T04:38:37;2.90;;;0.50;;
59824;SDS011;45703;50.898;6.054;2023-03-14T04:41:02;2.78;;;0.40;;
59824;SDS011;45703;50.898;6.054;2023-03-14T04:43:28;2.28;;;0.43;;
59824;SDS011;45703;50.898;6.054;2023-03-14T04:45:54;3.72;;;0.40;;
59824;SDS011;45703;50.898;6.054;2023-03-14T04:48:20;2.60;;;0.60;;
59824;SDS011;45703;50.898;6.054;2023-03-14T04:50:46;3.00;;;0.95;;
59824;SDS011;45703;50.898;6.054;2023-03-14T04:53:12;2.47;;;0.40;;
59824;SDS011;45703;50.898;6.054;2023-03-14T04:55:38;1.90;;;0.40;;
59824;SDS011;45703;50.898;6.054;2023-03-14T04:58:04;1.20;;;0.30;;
59824;SDS011;45703;50.898;6.054;2023-03-14T05:00:29;2.35;;;0.40;;
59824;SDS011;45703;50.898;6.054;2023-03-14T05:02:55;1.23;;;0.30;;
59824;SDS011;45703;50.898;6.054;2023-03-14T05:05:20;0.50;;;0.30;;
59824;SDS011;45703;50.898;6.054;2023-03-14T05:07:46;0.28;;;0.20;;
59824;SDS011;45703;50.898;6.054;2023-03-14T05:10:11;2.17;;;0.22;;
59824;SDS011;45703;50.898;6.054;2023-03-14T05:12:40;1.88;;;0.40;;
59824;SDS011;45703;50.898;6.054;2023-03-14T05:15:05;2.05;;;0.45;;
59824;SDS011;45703;50.898;6.054;2023-03-14T05:17:34;1.23;;;0.20;;
59824;SDS011;45703;50.898;6.054;2023-03-14T05:20:00;0.68;;;0.25;;
59824;SDS011;45703;50.898;6.054;2023-03-14T05:22:28;0.77;;;0.28;;
59824;SDS011;45703;50.898;6.054;2023-03-14T05:24:54;0.77;;;0.28;;
59824;SDS011;45703;50.898;6.054;2023-03-14T05:27:21;0.55;;;0.28;;
59824;SDS011;45703;50.898;6.054;2023-03-14T05:29:47;1.00;;;0.30;;
59824;SDS011;45703;50.898;6.054;2023-03-14T05:32:12;0.65;;;0.20;;
59824;SDS011;45703;50.898;6.054;2023-03-14T05:34:38;1.33;;;0.30;;
59824;SDS011;45703;50.898;6.054;2023-03-14T05:37:03;1.27;;;0.30;;
59824;SDS011;45703;50.898;6.054;2023-03-14T05:39:28;1.13;;;0.60;;
59824;SDS011;45703;50.898;6.054;2023-03-14T05:41:54;0.88;;;0.30;;
59824;SDS011;45703;50.898;6.054;2023-03-14T05:44:20;1.00;;;0.20;;
59824;SDS011;45703;50.898;6.054;2023-03-14T05:46:48;0.65;;;0.25;;
59824;SDS011;45703;50.898;6.054;2023-03-14T05:49:14;2.70;;;0.47;;
59824;SDS011;45703;50.898;6.054;2023-03-14T05:51:39;1.13;;;0.30;;
59824;SDS011;45703;50.898;6.054;2023-03-14T05:54:04;1.48;;;0.30;;
59824;SDS011;45703;50.898;6.054;2023-03-14T05:56:30;1.58;;;0.30;;
59824;SDS011;45703;50.898;6.054;2023-03-14T05:58:57;1.25;;;0.30;;
59824;SDS011;45703;50.898;6.054;2023-03-14T06:01:34;1.60;;;0.32;;
59824;SDS011;45703;50.898;6.054;2023-03-14T06:04:02;2.08;;;0.40;;
59824;SDS011;45703;50.898;6.054;2023-03-14T06:06:29;2.28;;;0.30;;
59824;SDS011;45703;50.898;6.054;2023-03-14T06:08:58;0.95;;;0.20;;
59824;SDS011;45703;50.898;6.054;2023-03-14T06:11:26;0.70;;;0.30;;
59824;SDS011;45703;50.898;6.054;2023-03-14T06:13:54;1.80;;;0.30;;
59824;SDS011;45703;50.898;6.054;2023-03-14T06:16:20;1.10;;;0.28;;
59824;SDS011;45703;50.898;6.054;2023-03-14T06:18:47;0.65;;;0.28;;
59824;SDS011;45703;50.898;6.054;2023-03-14T06:21:17;0.77;;;0.38;;
59824;SDS011;45703;50.898;6.054;2023-03-14T06:23:42;0.52;;;0.20;;
59824;SDS011;45703;50.898;6.054;2023-03-14T06:26:08;0.47;;;0.20;;
59824;SDS011;45703;50.898;6.054;2023-03-14T06:28:36;1.00;;;0.28;;
59824;SDS011;45703;50.898;6.054;2023-03-14T06:31:04;0.82;;;0.30;;
59824;SDS011;45703;50.898;6.054;2023-03-14T06:33:38;1.60;;;0.30;;
59824;SDS011;45703;50.898;6.054;2023-03-14T06:36:14;1.40;;;0.43;;
59824;SDS011;45703;50.898;6.054;2023-03-14T06:38:47;0.98;;;0.38;;
59824;SDS011;45703;50.898;6.054;2023-03-14T06:41:13;0.55;;;0.25;;
59824;SDS011;45703;50.898;6.054;2023-03-14T06:43:41;1.65;;;0.50;;
59824;SDS011;45703;50.898;6.054;2023-03-14T06:46:07;0.95;;;0.38;;
59824;SDS011;45703;50.898;6.054;2023-03-14T06:48:32;0.80;;;0.30;;
59824;SDS011;45703;50.898;6.054;2023-03-14T06:50:58;0.93;;;0.38;;
59824;SDS011;45703;50.898;6.054;2023-03-14T06:53:26;2.75;;;0.52;;
59824;SDS011;45703;50.898;6.054;2023-03-14T06:55:55;1.33;;;0.30;;
59824;SDS011;45703;50.898;6.054;2023-03-14T06:58:20;2.17;;;0.35;;
59824;SDS011;45703;50.898;6.054;2023-03-14T07:00:46;2.33;;;0.50;;
59824;SDS011;45703;50.898;6.054;2023-03-14T07:03:14;1.90;;;0.40;;
59824;SDS011;45703;50.898;6.054;2023-03-14T07:05:42;1.60;;;0.30;;
59824;SDS011;45703;50.898;6.054;2023-03-14T07:08:10;1.60;;;0.40;;
59824;SDS011;45703;50.898;6.054;2023-03-14T07:10:39;2.13;;;0.55;;
59824;SDS011;45703;50.898;6.054;2023-03-14T07:13:07;0.88;;;0.40;;
59824;SDS011;45703;50.898;6.054;2023-03-14T07:15:38;1.98;;;0.52;;
59824;SDS011;45703;50.898;6.054;2023-03-14T07:18:03;0.80;;;0.40;;
59824;SDS011;45703;50.898;6.054;2023-03-14T07:20:29;1.48;;;0.50;;
59824;SDS011;45703;50.898;6.054;2023-03-14T07:23:03;1.90;;;0.50;;
59824;SDS011;45703;50.898;6.054;2023-03-14T07:25:31;3.20;;;0.52;;
59824;SDS011;45703;50.898;6.054;2023-03-14T07:27:59;1.10;;;0.40;;
59824;SDS011;45703;50.898;6.054;2023-03-14T07:30:25;1.30;;;0.45;;
59824;SDS011;45703;50.898;6.054;2023-03-14T07:32:52;1.60;;;0.45;;
59824;SDS011;45703;50.898;6.054;2023-03-14T07:35:18;3.20;;;0.55;;
59824;SDS011;45703;50.898;6.054;2023-03-14T07:37:43;1.90;;;0.50;;
59824;SDS011;45703;50.898;6.054;2023-03-14T07:40:09;3.80;;;0.70;;
59824;SDS011;45703;50.898;6.054;2023-03-14T07:42:36;2.65;;;0.52;;
59824;SDS011;45703;50.898;6.054;2023-03-14T07:45:02;3.30;;;0.55;;
59824;SDS011;45703;50.898;6.054;2023-03-14T07:47:28;1.45;;;0.40;;
59824;SDS011;45703;50.898;6.054;2023-03-14T07:49:53;2.28;;;0.55;;
59824;SDS011;45703;50.898;6.054;2023-03-14T07:52:18;3.05;;;0.70;;
59824;SDS011;45703;50.898;6.054;2023-03-14T07:54:44;3.25;;;0.77;;
59824;SDS011;45703;50.898;6.054;2023-03-14T07:57:09;1.30;;;0.50;;
59824;SDS011;45703;50.898;6.054;2023-03-14T07:59:35;3.35;;;0.80;;
59824;SDS011;45703;50.898;6.054;2023-03-14T08:02:00;1.67;;;0.60;;
59824;SDS011;45703;50.898;6.054;2023-03-14T08:04:26;3.55;;;0.80;;
59824;SDS011;45703;50.898;6.054;2023-03-14T08:06:52;2.78;;;0.75;;
59824;SDS011;45703;50.898;6.054;2023-03-14T08:09:19;3.33;;;0.90;;
59824;SDS011;45703;50.898;6.054;2023-03-14T08:11:44;3.03;;;0.80;;
59824;SDS011;45703;50.898;6.054;2023-03-14T08:14:10;2.53;;;0.88;;
59824;SDS011;45703;50.898;6.054;2023-03-14T08:16:36;3.28;;;0.70;;
59824;SDS011;45703;50.898;6.054;2023-03-14T08:19:01;1.48;;;0.50;;
59824;SDS011;45703;50.898;6.054;2023-03-14T08:21:27;3.35;;;0.60;;
59824;SDS011;45703;50.898;6.054;2023-03-14T08:23:52;5.88;;;1.02;;
59824;SDS011;45703;50.898;6.054;2023-03-14T08:26:18;4.05;;;0.80;;
59824;SDS011;45703;50.898;6.054;2023-03-14T08:28:43;3.13;;;0.60;;
59824;SDS011;45703;50.898;6.054;2023-03-14T08:31:08;2.97;;;0.80;;
59824;SDS011;45703;50.898;6.054;2023-03-14T08:33:34;2.85;;;0.70;;
59824;SDS011;45703;50.898;6.054;2023-03-14T08:36:00;1.50;;;0.50;;
59824;SDS011;45703;50.898;6.054;2023-03-14T08:38:26;1.85;;;0.50;;
59824;SDS011;45703;50.898;6.054;2023-03-14T08:40:55;2.75;;;0.70;;
59824;SDS011;45703;50.898;6.054;2023-03-14T08:43:22;1.88;;;0.47;;
59824;SDS011;45703;50.898;6.054;2023-03-14T08:45:48;2.80;;;0.57;;
59824;SDS011;45703;50.898;6.054;2023-03-14T08:48:13;3.60;;;0.57;;
59824;SDS011;45703;50.898;6.054;2023-03-14T08:50:39;1.73;;;0.50;;
59824;SDS011;45703;50.898;6.054;2023-03-14T08:53:04;0.98;;;0.40;;
59824;SDS011;45703;50.898;6.054;2023-03-14T08:55:29;1.48;;;0.32;;
59824;SDS011;45703;50.898;6.054;2023-03-14T08:57:55;1.27;;;0.45;;
59824;SDS011;45703;50.898;6.054;2023-03-14T09:00:20;1.65;;;0.47;;
59824;SDS011;45703;50.898;6.054;2023-03-14T09:02:46;1.88;;;0.50;;
59824;SDS011;45703;50.898;6.054;2023-03-14T09:05:11;1.77;;;0.40;;
59824;SDS011;45703;50.898;6.054;2023-03-14T09:07:38;1.35;;;0.40;;
59824;SDS011;45703;50.898;6.054;2023-03-14T09:10:04;1.05;;;0.38;;
59824;SDS011;45703;50.898;6.054;2023-03-14T09:12:31;1.10;;;0.30;;
59824;SDS011;45703;50.898;6.054;2023-03-14T09:14:56;1.67;;;0.45;;
59824;SDS011;45703;50.898;6.054;2023-03-14T09:17:22;2.47;;;0.50;;
59824;SDS011;45703;50.898;6.054;2023-03-14T09:19:47;1.55;;;0.60;;
59824;SDS011;45703;50.898;6.054;2023-03-14T09:22:13;1.52;;;0.50;;
59824;SDS011;45703;50.898;6.054;2023-03-14T09:24:39;2.22;;;0.50;;
59824;SDS011;45703;50.898;6.054;2023-03-14T09:27:06;3.50;;;0.57;;
59824;SDS011;45703;50.898;6.054;2023-03-14T09:29:32;2.88;;;0.50;;
59824;SDS011;45703;50.898;6.054;2023-03-14T09:31:58;2.00;;;0.60;;
59824;SDS011;45703;50.898;6.054;2023-03-14T09:34:24;1.25;;;0.50;;
59824;SDS011;45703;50.898;6.054;2023-03-14T09:36:50;1.05;;;0.40;;
59824;SDS011;45703;50.898;6.054;2023-03-14T09:39:15;1.25;;;0.40;;
59824;SDS011;45703;50.898;6.054;2023-03-14T09:41:46;3.35;;;0.52;;
59824;SDS011;45703;50.898;6.054;2023-03-14T09:46:48;2.67;;;0.60;;
59824;SDS011;45703;50.898;6.054;2023-03-14T09:49:29;3.22;;;0.68;;
59824;SDS011;45703;50.898;6.054;2023-03-14T09:51:58;2.63;;;0.60;;
59824;SDS011;45703;50.898;6.054;2023-03-14T09:57:25;3.60;;;0.95;;
59824;SDS011;45703;50.898;6.054;2023-03-14T09:59:58;4.07;;;0.90;;
59824;SDS011;45703;50.898;6.054;2023-03-14T10:02:37;4.38;;;1.00;;
59824;SDS011;45703;50.898;6.054;2023-03-14T10:05:05;2.95;;;0.90;;
59824;SDS011;45703;50.898;6.054;2023-03-14T10:07:39;3.53;;;1.00;;
59824;SDS011;45703;50.898;6.054;2023-03-14T10:10:08;4.72;;;1.08;;
59824;SDS011;45703;50.898;6.054;2023-03-14T10:12:36;5.13;;;1.30;;
59824;SDS011;45703;50.898;6.054;2023-03-14T10:15:05;4.15;;;1.00;;
59824;SDS011;45703;50.898;6.054;2023-03-14T10:17:38;5.05;;;1.10;;
59824;SDS011;45703;50.898;6.054;2023-03-14T10:20:26;4.78;;;1.30;;
59824;SDS011;45703;50.898;6.054;2023-03-14T10:25:45;6.20;;;1.40;;
59824;SDS011;45703;50.898;6.054;2023-03-14T10:28:24;5.72;;;1.42;;
59824;SDS011;45703;50.898;6.054;2023-03-14T10:30:51;5.90;;;1.70;;
59824;SDS011;45703;50.898;6.054;2023-03-14T10:35:53;4.95;;;1.70;;
59824;SDS011;45703;50.898;6.054;2023-03-14T10:38:22;5.65;;;1.92;;
59824;SDS011;45703;50.898;6.054;2023-03-14T10:40:49;6.80;;;1.95;;
59824;SDS011;45703;50.898;6.054;2023-03-14T10:43:25;5.53;;;1.42;;
59824;SDS011;45703;50.898;6.054;2023-03-14T10:48:37;3.85;;;1.30;;
59824;SDS011;45703;50.898;6.054;2023-03-14T10:51:10;4.70;;;1.60;;
59824;SDS011;45703;50.898;6.054;2023-03-14T10:54:01;4.55;;;1.63;;
59824;SDS011;45703;50.898;6.054;2023-03-14T10:56:34;5.15;;;1.75;;
59824;SDS011;45703;50.898;6.054;2023-03-14T10:59:02;3.95;;;1.23;;
59824;SDS011;45703;50.898;6.054;2023-03-14T11:06:56;3.88;;;1.10;;
59824;SDS011;45703;50.898;6.054;2023-03-14T11:09:32;3.90;;;1.27;;
59824;SDS011;45703;50.898;6.054;2023-03-14T11:15:04;5.28;;;1.50;;
59824;SDS011;45703;50.898;6.054;2023-03-14T11:17:49;4.40;;;1.20;;
59824;SDS011;45703;50.898;6.054;2023-03-14T11:26:26;5.53;;;1.52;;
59824;SDS011;45703;50.898;6.054;2023-03-14T11:28:58;6.10;;;1.35;;
59824;SDS011;45703;50.898;6.054;2023-03-14T11:31:46;4.93;;;1.38;;
59824;SDS011;45703;50.898;6.054;2023-03-14T11:37:05;3.42;;;0.77;;
59824;SDS011;45703;50.898;6.054;2023-03-14T11:39:40;2.13;;;0.55;;
59824;SDS011;45703;50.898;6.054;2023-03-14T11:42:12;2.55;;;0.80;;
59824;SDS011;45703;50.898;6.054;2023-03-14T11:44:40;4.68;;;0.80;;
59824;SDS011;45703;50.898;6.054;2023-03-14T11:47:22;4.63;;;1.00;;
59824;SDS011;45703;50.898;6.054;2023-03-14T11:55:26;4.40;;;0.90;;
59824;SDS011;45703;50.898;6.054;2023-03-14T11:57:57;4.55;;;1.10;;
59824;SDS011;45703;50.898;6.054;2023-03-14T12:00:26;3.43;;;1.00;;
59824;SDS011;45703;50.898;6.054;2023-03-14T12:08:01;4.72;;;1.10;;
59824;SDS011;45703;50.898;6.054;2023-03-14T12:10:38;3.28;;;1.00;;
59824;SDS011;45703;50.898;6.054;2023-03-14T12:13:09;4.07;;;0.90;;
59824;SDS011;45703;50.898;6.054;2023-03-14T12:15:56;7.38;;;1.23;;
59824;SDS011;45703;50.898;6.054;2023-03-14T12:18:31;4.85;;;1.40;;
59824;SDS011;45703;50.898;6.054;2023-03-14T12:21:05;5.28;;;1.10;;
59824;SDS011;45703;50.898;6.054;2023-03-14T12:23:51;5.90;;;1.17;;
59824;SDS011;45703;50.898;6.054;2023-03-14T12:26:20;4.85;;;1.00;;
59824;SDS011;45703;50.898;6.054;2023-03-14T12:29:30;5.20;;;0.90;;
59824;SDS011;45703;50.898;6.054;2023-03-14T12:31:43;5.43;;;1.33;;
59824;SDS011;45703;50.898;6.054;2023-03-14T12:44:46;5.68;;;1.00;;
59824;SDS011;45703;50.898;6.054;2023-03-14T12:49:41;4.05;;;0.80;;
59824;SDS011;45703;50.898;6.054;2023-03-14T12:52:19;7.55;;;1.05;;
59824;SDS011;45703;50.898;6.054;2023-03-14T12:54:49;9.93;;;1.20;;
59824;SDS011;45703;50.898;6.054;2023-03-14T12:59:51;7.90;;;1.20;;
59824;SDS011;45703;50.898;6.054;2023-03-14T13:02:25;10.40;;;1.13;;
59824;SDS011;45703;50.898;6.054;2023-03-14T13:05:09;5.95;;;1.10;;
59824;SDS011;45703;50.898;6.054;2023-03-14T13:12:37;6.57;;;1.13;;
59824;SDS011;45703;50.898;6.054;2023-03-14T13:15:07;7.13;;;1.35;;
59824;SDS011;45703;50.898;6.054;2023-03-14T13:17:42;8.30;;;1.88;;
59824;SDS011;45703;50.898;6.054;2023-03-14T13:20:14;7.85;;;1.08;;
59824;SDS011;45703;50.898;6.054;2023-03-14T13:22:52;7.68;;;1.30;;
59824;SDS011;45703;50.898;6.054;2023-03-14T13:25:18;8.35;;;1.35;;
59824;SDS011;45703;50.898;6.054;2023-03-14T13:27:46;7.32;;;1.15;;
59824;SDS011;45703;50.898;6.054;2023-03-14T13:32:43;6.85;;;1.30;;
59824;SDS011;45703;50.898;6.054;2023-03-14T13:35:14;9.40;;;2.37;;
59824;SDS011;45703;50.898;6.054;2023-03-14T13:37:42;7.28;;;1.33;;
59824;SDS011;45703;50.898;6.054;2023-03-14T13:40:17;9.43;;;1.88;;
59824;SDS011;45703;50.898;6.054;2023-03-14T13:42:44;10.05;;;1.70;;
59824;SDS011;45703;50.898;6.054;2023-03-14T13:45:11;9.43;;;1.58;;
59824;SDS011;45703;50.898;6.054;2023-03-14T13:47:38;7.75;;;1.73;;
59824;SDS011;45703;50.898;6.054;2023-03-14T13:50:05;8.38;;;1.70;;
59824;SDS011;45703;50.898;6.054;2023-03-14T13:52:37;9.13;;;1.50;;
59824;SDS011;45703;50.898;6.054;2023-03-14T13:55:04;7.70;;;1.40;;
59824;SDS011;45703;50.898;6.054;2023-03-14T13:57:47;10.45;;;1.58;;
59824;SDS011;45703;50.898;6.054;2023-03-14T14:00:20;10.48;;;1.90;;
59824;SDS011;45703;50.898;6.054;2023-03-14T14:02:47;6.53;;;1.63;;
59824;SDS011;45703;50.898;6.054;2023-03-14T14:05:13;8.32;;;1.48;;
59824;SDS011;45703;50.898;6.054;2023-03-14T14:07:39;8.65;;;1.50;;
59824;SDS011;45703;50.898;6.054;2023-03-14T14:10:05;8.68;;;1.55;;
59824;SDS011;45703;50.898;6.054;2023-03-14T14:12:33;11.65;;;1.83;;
59824;SDS011;45703;50.898;6.054;2023-03-14T14:15:04;7.75;;;1.73;;
59824;SDS011;45703;50.898;6.054;2023-03-14T14:20:36;9.00;;;1.58;;
59824;SDS011;45703;50.898;6.054;2023-03-14T14:23:05;10.13;;;2.15;;
59824;SDS011;45703;50.898;6.054;2023-03-14T14:25:38;8.63;;;2.33;;
59824;SDS011;45703;50.898;6.054;2023-03-14T14:36:41;8.85;;;2.13;;
59824;SDS011;45703;50.898;6.054;2023-03-14T14:41:41;11.77;;;1.92;;
59824;SDS011;45703;50.898;6.054;2023-03-14T14:44:10;9.77;;;2.33;;
59824;SDS011;45703;50.898;6.054;2023-03-14T14:46:39;13.40;;;2.08;;
59824;SDS011;45703;50.898;6.054;2023-03-14T14:49:12;8.32;;;1.65;;
59824;SDS011;45703;50.898;6.054;2023-03-14T14:51:44;8.68;;;1.60;;
59824;SDS011;45703;50.898;6.054;2023-03-14T14:54:17;7.55;;;2.10;;
59824;SDS011;45703;50.898;6.054;2023-03-14T14:56:51;11.30;;;2.03;;
59824;SDS011;45703;50.898;6.054;2023-03-14T14:59:27;11.60;;;2.08;;
59824;SDS011;45703;50.898;6.054;2023-03-14T15:02:00;9.43;;;1.98;;
59824;SDS011;45703;50.898;6.054;2023-03-14T15:04:29;14.55;;;2.83;;
59824;SDS011;45703;50.898;6.054;2023-03-14T15:06:56;12.88;;;2.67;;
59824;SDS011;45703;50.898;6.054;2023-03-14T15:09:22;9.82;;;1.77;;
59824;SDS011;45703;50.898;6.054;2023-03-14T15:11:48;9.80;;;1.85;;
59824;SDS011;45703;50.898;6.054;2023-03-14T15:14:14;12.88;;;1.90;;
59824;SDS011;45703;50.898;6.054;2023-03-14T15:16:40;7.68;;;1.80;;
59824;SDS011;45703;50.898;6.054;2023-03-14T15:19:22;10.35;;;1.73;;
59824;SDS011;45703;50.898;6.054;2023-03-14T15:21:51;8.18;;;1.67;;
59824;SDS011;45703;50.898;6.054;2023-03-14T15:24:18;11.55;;;1.95;;
59824;SDS011;45703;50.898;6.054;2023-03-14T15:26:43;12.57;;;1.98;;
59824;SDS011;45703;50.898;6.054;2023-03-14T15:29:10;9.48;;;1.77;;
59824;SDS011;45703;50.898;6.054;2023-03-14T15:31:37;12.88;;;3.42;;
59824;SDS011;45703;50.898;6.054;2023-03-14T15:34:03;12.90;;;1.83;;
59824;SDS011;45703;50.898;6.054;2023-03-14T15:36:29;13.93;;;2.10;;
59824;SDS011;45703;50.898;6.054;2023-03-14T15:38:56;11.98;;;2.25;;
59824;SDS011;45703;50.898;6.054;2023-03-14T15:41:23;8.93;;;1.80;;
59824;SDS011;45703;50.898;6.054;2023-03-14T15:43:49;7.72;;;1.70;;
59824;SDS011;45703;50.898;6.054;2023-03-14T15:46:15;8.50;;;2.40;;
59824;SDS011;45703;50.898;6.054;2023-03-14T15:48:42;8.60;;;2.00;;
59824;SDS011;45703;50.898;6.054;2023-03-14T15:51:08;9.10;;;2.17;;
59824;SDS011;45703;50.898;6.054;2023-03-14T15:53:33;7.90;;;2.63;;
59824;SDS011;45703;50.898;6.054;2023-03-14T15:56:01;9.23;;;2.58;;
59824;SDS011;45703;50.898;6.054;2023-03-14T15:58:30;12.95;;;3.22;;
59824;SDS011;45703;50.898;6.054;2023-03-14T16:00:58;11.20;;;3.40;;
59824;SDS011;45703;50.898;6.054;2023-03-14T16:03:25;10.52;;;3.45;;
59824;SDS011;45703;50.898;6.054;2023-03-14T16:05:50;13.10;;;3.80;;
59824;SDS011;45703;50.898;6.054;2023-03-14T16:08:15;10.15;;;3.10;;
59824;SDS011;45703;50.898;6.054;2023-03-14T16:10:41;9.43;;;3.15;;
59824;SDS011;45703;50.898;6.054;2023-03-14T16:13:07;11.93;;;3.45;;
59824;SDS011;45703;50.898;6.054;2023-03-14T16:15:32;8.68;;;3.05;;
59824;SDS011;45703;50.898;6.054;2023-03-14T16:17:58;6.28;;;1.52;;
59824;SDS011;45703;50.898;6.054;2023-03-14T16:20:23;4.32;;;0.80;;
59824;SDS011;45703;50.898;6.054;2023-03-14T16:22:49;6.50;;;0.98;;
59824;SDS011;45703;50.898;6.054;2023-03-14T16:25:14;5.82;;;0.88;;
59824;SDS011;45703;50.898;6.054;2023-03-14T16:27:40;6.35;;;0.73;;
59824;SDS011;45703;50.898;6.054;2023-03-14T16:30:09;6.80;;;1.20;;
59824;SDS011;45703;50.898;6.054;2023-03-14T16:32:35;8.48;;;1.15;;
59824;SDS011;45703;50.898;6.054;2023-03-14T16:35:01;8.20;;;1.83;;
59824;SDS011;45703;50.898;6.054;2023-03-14T16:37:26;4.95;;;0.80;;
59824;SDS011;45703;50.898;6.054;2023-03-14T16:39:52;7.32;;;1.20;;